Nordpanther — 5BDV4 — position and weather

sailwx.info

Track history (hours):
 
Tides and Currents Weather Stations Pressure Air Temp Water Temp Dewpoint Dewpoint Depression Visibility Wind Speed Wind Dir Waves Ship Positions

Nordpanther

Last reported at 2018-Jun-03 12:15 UTC. Time now 2018-Jun-18 15:09 UTC.
Position N 23°23' E 117°58'.
Warning: this ship's position is 15 days out of date.

Length 170 m; draft 8.9 m.

Type: Ship (hazmat cat A). MMSI: 212531000.

Date/timePositionNaut miles runAvg speedWind from/ knotsBaromVisibWave heightAir tempDewpointWater temp
2018-Jun-03 12:15N 23°23' E 117°58'718.6
2018-Jun-03 11:53N 23°27' E 118°04'818.8
2018-Jun-03 11:27N 23°32' E 118°11'818.7
2018-Jun-03 11:00N 23°37' E 118°18'918.7
2018-Jun-03 10:30N 23°43' E 118°26'1018.9
2018-Jun-03 10:00N 23°49' E 118°34'1019.0
2018-Jun-03 09:28N 23°55' E 118°43'919.0
2018-Jun-03 09:00N 23°60' E 118°51'1019.2
2018-Jun-03 08:30N 24°05' E 118°60'1019.4
2018-Jun-03 08:00N 24°11' E 119°08'4318.7
2018-Jun-03 05:41N 24°39' E 119°45'41316.1
2018-Jun-02 03:57N 31°05' E 122°31'8 9.5
2018-Jun-02 03:10N 31°06' E 122°23'43 3.2
2018-Jun-01 13:45N 31°22' E 121°36'2 3.9
2018-Jun-01 13:15N 31°22' E 121°38'287 5.8
2018-May-30 11:59N 36°01' E 120°14'0 0.0
2018-May-30 10:56N 36°01' E 120°14'0 0.0
2018-May-30 08:03N 36°01' E 120°14'0 0.0
2018-May-30 07:06N 36°01' E 120°14'0 0.0
2018-May-30 06:49N 36°01' E 120°14'0 0.0
2018-May-30 05:18N 36°01' E 120°14'0 0.0
2018-May-30 03:04N 36°01' E 120°14'1 2.5
2018-May-30 02:46N 36°01' E 120°14'510.0
2018-May-30 02:16N 36°01' E 120°20'8 7.8
2018-May-30 01:15N 36°00' E 120°30'2 7.6
2018-May-30 01:00N 35°60' E 120°32'  
Track history (hours):
 
Tides and Currents Weather Stations Pressure Air Temp Water Temp Dewpoint Dewpoint Depression Visibility Wind Speed Wind Dir Waves Ship Positions

Nordpanther

Last reported at 2018-Jun-03 12:15 UTC. Time now 2018-Jun-18 15:09 UTC.
Position N 23°23' E 117°58'.
Warning: this ship's position is 15 days out of date.

Length 170 m; draft 8.9 m.

Type: Ship (hazmat cat A). MMSI: 212531000.

Date/timePositionNaut miles runAvg speedWind from/ knotsBaromVisibWave heightAir tempDewpointWater temp
2018-Jun-03 12:15N 23°23' E 117°58'718.6
2018-Jun-03 11:53N 23°27' E 118°04'818.8
2018-Jun-03 11:27N 23°32' E 118°11'818.7
2018-Jun-03 11:00N 23°37' E 118°18'918.7
2018-Jun-03 10:30N 23°43' E 118°26'1018.9
2018-Jun-03 10:00N 23°49' E 118°34'1019.0
2018-Jun-03 09:28N 23°55' E 118°43'919.0
2018-Jun-03 09:00N 23°60' E 118°51'1019.2
2018-Jun-03 08:30N 24°05' E 118°60'1019.4
2018-Jun-03 08:00N 24°11' E 119°08'4318.7
2018-Jun-03 05:41N 24°39' E 119°45'41316.1
2018-Jun-02 03:57N 31°05' E 122°31'8 9.5
2018-Jun-02 03:10N 31°06' E 122°23'43 3.2
2018-Jun-01 13:45N 31°22' E 121°36'2 3.9
2018-Jun-01 13:15N 31°22' E 121°38'287 5.8
2018-May-30 11:59N 36°01' E 120°14'0 0.0
2018-May-30 10:56N 36°01' E 120°14'0 0.0
2018-May-30 08:03N 36°01' E 120°14'0 0.0
2018-May-30 07:06N 36°01' E 120°14'0 0.0
2018-May-30 06:49N 36°01' E 120°14'0 0.0
2018-May-30 05:18N 36°01' E 120°14'0 0.0
2018-May-30 03:04N 36°01' E 120°14'1 2.5
2018-May-30 02:46N 36°01' E 120°14'510.0
2018-May-30 02:16N 36°01' E 120°20'8 7.8
2018-May-30 01:15N 36°00' E 120°30'2 7.6
2018-May-30 01:00N 35°60' E 120°32'  

Dump ship's entire track history